Time;durP1;ratioP1;P1;durP2;ratioP2;P2;SDS_P1;SDS_P2;PMS_P1;PMS_P2;Temp;Humidity;BMP_temperature;BMP_pressure;BME280_temperature;BME280_humidity;BME280_pressure;Samples;Min_cycle;Max_cycle;Signal;HPM_P1;HPM_P2
2021/07/14 00:02:25;;;;;;;8.95;6.43;;;23.10;69.20;;;;;;5035045;28;20076;-65
2021/07/14 00:04:51;;;;;;;8.35;6.43;;;23.10;69.10;;;;;;5035219;28;20044;-65
2021/07/14 00:07:17;;;;;;;7.88;5.78;;;23.00;69.10;;;;;;5039274;28;20021;-65
2021/07/14 00:09:43;;;;;;;7.35;5.80;;;23.00;69.10;;;;;;5036305;28;20398;-65
2021/07/14 00:12:09;;;;;;;8.32;6.18;;;23.00;69.10;;;;;;5035154;28;20026;-65
2021/07/14 00:22:24;;;;;;;8.02;6.05;;;23.00;69.20;;;;;;5034898;28;20036;-65
2021/07/14 00:24:50;;;;;;;7.18;5.72;;;23.00;69.20;;;;;;5034584;28;20030;-65
2021/07/14 00:27:16;;;;;;;7.80;5.88;;;23.00;69.20;;;;;;5034567;28;20029;-65
2021/07/14 00:29:55;;;;;;;7.65;6.03;;;23.00;69.30;;;;;;5033772;28;20431;-65
2021/07/14 00:32:22;;;;;;;7.43;6.03;;;23.00;69.30;;;;;;5034697;28;20337;-65
2021/07/14 00:34:48;;;;;;;8.38;6.13;;;23.00;69.30;;;;;;5035752;28;20041;-66
2021/07/14 00:37:14;;;;;;;7.63;6.13;;;23.00;69.40;;;;;;5034774;28;20546;-65
2021/07/14 00:39:41;;;;;;;7.75;6.20;;;22.90;69.40;;;;;;5034329;28;20026;-65
2021/07/14 00:42:09;;;;;;;9.40;6.82;;;23.00;69.40;;;;;;5034271;28;20068;-66
2021/07/14 00:44:34;;;;;;;7.43;6.10;;;23.00;69.40;;;;;;5034295;28;20033;-64
2021/07/14 00:47:01;;;;;;;7.72;6.07;;;22.90;69.40;;;;;;5033975;28;20113;-65
2021/07/14 00:49:28;;;;;;;8.02;6.18;;;22.90;69.40;;;;;;5033558;28;20480;-65
2021/07/14 00:51:54;;;;;;;8.90;6.45;;;23.00;69.40;;;;;;5033755;28;20033;-66
2021/07/14 00:54:20;;;;;;;7.18;5.80;;;23.00;69.40;;;;;;5033357;28;20025;-65
2021/07/14 00:56:46;;;;;;;8.18;6.28;;;22.90;69.40;;;;;;5033668;28;20461;-65
2021/07/14 00:59:11;;;;;;;7.68;6.32;;;22.90;69.50;;;;;;5033537;28;20033;-66
2021/07/14 01:01:37;;;;;;;8.25;6.22;;;22.90;69.50;;;;;;5033316;28;20022;-63
2021/07/14 01:04:12;;;;;;;8.32;6.25;;;22.90;69.40;;;;;;5033125;28;20029;-63
2021/07/14 01:07:25;;;;;;;8.20;6.53;;;22.90;69.50;;;;;;5032760;28;20071;-64
2021/07/14 01:10:09;;;;;;;7.55;6.20;;;22.90;69.60;;;;;;5031384;28;20048;-65
2021/07/14 01:12:47;;;;;;;7.95;5.90;;;22.90;69.40;;;;;;5033245;28;20112;-64
2021/07/14 01:15:17;;;;;;;7.60;5.53;;;22.90;69.50;;;;;;5033219;28;20045;-63
2021/07/14 01:17:52;;;;;;;8.02;6.13;;;22.90;69.50;;;;;;5033236;28;20036;-63
2021/07/14 01:20:53;;;;;;;8.18;6.18;;;22.90;69.50;;;;;;5033144;28;20030;-63
2021/07/14 01:23:24;;;;;;;9.00;5.88;;;22.90;69.50;;;;;;5031699;28;20143;-64
2021/07/14 01:25:58;;;;;;;7.40;5.82;;;22.90;69.40;;;;;;5033101;28;20507;-66
2021/07/14 01:28:27;;;;;;;9.85;6.40;;;22.90;69.50;;;;;;5033054;28;20056;-64
2021/07/14 01:30:53;;;;;;;7.78;6.15;;;22.90;69.50;;;;;;5032983;28;20029;-63
2021/07/14 01:33:24;;;;;;;8.30;6.30;;;22.90;69.50;;;;;;5032988;28;20049;-64
2021/07/14 01:35:53;;;;;;;7.55;5.70;;;22.90;69.40;;;;;;5033279;28;20044;-64
2021/07/14 01:38:20;;;;;;;8.07;6.50;;;22.90;69.40;;;;;;5033213;28;20029;-64
2021/07/14 01:40:47;;;;;;;7.25;5.95;;;22.90;69.40;;;;;;5033385;28;20030;-64
2021/07/14 01:43:13;;;;;;;6.90;5.47;;;22.90;69.50;;;;;;5032967;28;20029;-64
2021/07/14 01:45:41;;;;;;;7.15;5.10;;;22.90;69.50;;;;;;5032791;28;20024;-64
2021/07/14 01:48:10;;;;;;;7.63;5.97;;;22.80;69.50;;;;;;5032804;28;20413;-64
2021/07/14 01:50:36;;;;;;;7.85;6.43;;;22.90;69.50;;;;;;5033248;28;20101;-64
2021/07/14 01:53:03;;;;;;;7.28;6.00;;;22.90;69.50;;;;;;5032929;28;20096;-64
2021/07/14 01:55:32;;;;;;;7.40;5.97;;;22.90;69.50;;;;;;5033130;28;20048;-64
2021/07/14 01:57:59;;;;;;;8.20;6.20;;;22.90;69.40;;;;;;5032902;28;20036;-64
2021/07/14 02:00:26;;;;;;;7.85;6.35;;;22.80;69.50;;;;;;5032855;28;20458;-64
2021/07/14 02:03:04;;;;;;;7.70;5.57;;;22.90;69.40;;;;;;5032709;28;20069;-64
2021/07/14 02:05:31;;;;;;;7.95;6.25;;;22.80;69.40;;;;;;5032763;28;20028;-65
2021/07/14 02:07:58;;;;;;;7.78;5.80;;;22.90;69.50;;;;;;5033031;28;20030;-65
2021/07/14 02:10:24;;;;;;;7.13;5.82;;;22.80;69.50;;;;;;5032822;28;20025;-65
2021/07/14 02:12:51;;;;;;;6.53;5.32;;;22.80;69.50;;;;;;5033094;28;20083;-65
2021/07/14 02:15:17;;;;;;;7.22;5.60;;;22.80;69.50;;;;;;5032912;28;20377;-65
2021/07/14 02:17:54;;;;;;;7.15;5.65;;;22.80;69.40;;;;;;5034057;28;20022;-65
2021/07/14 02:20:21;;;;;;;7.55;5.70;;;22.80;69.50;;;;;;5036887;28;20101;-65
2021/07/14 02:22:48;;;;;;;7.60;6.15;;;22.80;69.50;;;;;;5036478;28;20116;-65
2021/07/14 02:25:14;;;;;;;6.88;5.28;;;22.80;69.50;;;;;;5036977;28;20037;-65
2021/07/14 02:27:40;;;;;;;6.93;5.80;;;22.80;69.50;;;;;;5035893;28;20466;-65
2021/07/14 02:30:19;;;;;;;7.22;5.60;;;22.80;69.50;;;;;;5036263;28;20037;-65
2021/07/14 02:32:46;;;;;;;7.43;6.10;;;22.80;69.50;;;;;;5042392;28;20038;-65
2021/07/14 02:35:12;;;;;;;8.27;6.07;;;22.80;69.40;;;;;;5036812;28;20025;-65
2021/07/14 02:37:54;;;;;;;7.50;5.60;;;22.80;69.40;;;;;;5036078;28;20038;-65
2021/07/14 02:40:28;;;;;;;7.65;6.07;;;22.80;69.40;;;;;;5035711;28;20025;-65
2021/07/14 02:42:57;;;;;;;7.93;5.82;;;22.80;69.40;;;;;;5035426;28;20077;-65
2021/07/14 02:45:24;;;;;;;8.27;6.10;;;22.80;69.40;;;;;;5035404;28;20095;-65
2021/07/14 02:47:50;;;;;;;7.68;6.05;;;22.80;69.40;;;;;;5035541;28;20469;-65
2021/07/14 02:50:19;;;;;;;7.20;5.80;;;22.80;69.50;;;;;;5035799;28;20025;-65
2021/07/14 02:52:48;;;;;;;7.40;5.72;;;22.80;69.40;;;;;;5035775;28;20474;-64
2021/07/14 02:55:18;;;;;;;7.95;5.88;;;22.80;69.40;;;;;;5035655;28;20061;-64
2021/07/14 02:57:45;;;;;;;7.18;5.65;;;22.80;69.40;;;;;;5035273;28;20100;-64
2021/07/14 03:00:12;;;;;;;7.20;5.88;;;22.80;69.30;;;;;;5035666;28;20033;-64
2021/07/14 03:02:40;;;;;;;7.40;5.65;;;22.80;69.50;;;;;;5035763;28;20037;-64
2021/07/14 03:05:06;;;;;;;6.78;5.25;;;22.80;69.30;;;;;;5035908;28;20021;-65
2021/07/14 03:07:33;;;;;;;7.25;5.85;;;22.80;69.30;;;;;;5035897;28;20508;-64
2021/07/14 03:09:59;;;;;;;7.68;6.00;;;22.70;69.40;;;;;;5041562;28;20112;-65
2021/07/14 03:12:26;;;;;;;8.57;6.35;;;22.80;69.50;;;;;;5037559;28;20017;-65
2021/07/14 03:15:06;;;;;;;7.05;5.20;;;22.80;69.40;;;;;;5035403;28;20385;-64
2021/07/14 03:17:32;;;;;;;6.78;5.50;;;22.80;69.40;;;;;;5035550;28;20018;-64
2021/07/14 03:20:00;;;;;;;7.25;5.82;;;22.80;69.40;;;;;;5035669;28;20477;-65
2021/07/14 03:22:26;;;;;;;7.13;5.65;;;22.80;69.40;;;;;;5035442;28;20081;-64
2021/07/14 03:24:57;;;;;;;7.38;5.30;;;22.80;69.40;;;;;;5035666;28;20105;-64
2021/07/14 03:27:23;;;;;;;6.72;5.18;;;22.70;69.40;;;;;;5035566;28;20022;-64
2021/07/14 03:29:50;;;;;;;7.07;5.65;;;22.70;69.40;;;;;;5041574;28;20034;-65
2021/07/14 03:32:17;;;;;;;6.75;5.60;;;22.80;69.40;;;;;;5046266;28;20037;-66
2021/07/14 03:34:43;;;;;;;7.82;5.80;;;22.70;69.30;;;;;;5046386;28;20040;-68
2021/07/14 03:37:10;;;;;;;7.30;5.95;;;22.80;69.40;;;;;;5046089;28;20041;-68
2021/07/14 03:39:40;;;;;;;7.53;6.00;;;22.80;69.30;;;;;;5046534;28;20022;-65
2021/07/14 03:42:07;;;;;;;7.22;5.68;;;22.80;69.30;;;;;;5048767;28;20034;-65
2021/07/14 03:44:36;;;;;;;7.47;5.78;;;22.70;69.40;;;;;;5046101;28;20057;-65
2021/07/14 03:47:02;;;;;;;7.38;5.80;;;22.70;69.30;;;;;;5045414;28;20465;-65
2021/07/14 03:49:29;;;;;;;7.18;5.80;;;22.80;69.40;;;;;;5045095;28;20031;-64
2021/07/14 03:51:56;;;;;;;7.82;5.90;;;22.70;69.50;;;;;;5039782;28;20025;-64
2021/07/14 03:54:22;;;;;;;7.57;6.30;;;22.70;69.40;;;;;;5034869;28;20040;-64
2021/07/14 03:56:48;;;;;;;7.75;5.97;;;22.70;69.30;;;;;;5034936;28;20029;-64
2021/07/14 03:59:13;;;;;;;7.00;5.22;;;22.70;69.30;;;;;;5034891;28;20369;-64
2021/07/14 04:01:40;;;;;;;7.35;5.68;;;22.70;69.30;;;;;;5034565;28;20112;-65
2021/07/14 04:04:07;;;;;;;6.65;5.20;;;22.70;69.30;;;;;;5034607;28;20120;-64
2021/07/14 04:06:35;;;;;;;7.75;6.18;;;22.70;69.30;;;;;;5034864;28;20026;-65
2021/07/14 04:09:10;;;;;;;7.00;5.68;;;22.70;69.40;;;;;;5034733;28;20025;-65
2021/07/14 04:11:35;;;;;;;8.27;6.15;;;22.70;69.50;;;;;;5034504;28;20465;-65
2021/07/14 04:14:01;;;;;;;8.55;5.90;;;22.70;69.30;;;;;;5034433;28;20032;-65
2021/07/14 04:16:27;;;;;;;8.73;6.47;;;22.70;69.30;;;;;;5034266;28;20119;-65
2021/07/14 04:18:53;;;;;;;7.07;5.38;;;22.80;69.20;;;;;;5034368;28;20079;-65
2021/07/14 04:21:18;;;;;;;6.82;5.35;;;22.70;69.20;;;;;;5034346;28;20409;-65
2021/07/14 04:23:44;;;;;;;7.15;5.63;;;22.70;69.20;;;;;;5034130;28;20036;-65
2021/07/14 04:26:09;;;;;;;6.70;5.47;;;22.70;69.20;;;;;;5034120;28;20056;-65
2021/07/14 04:28:35;;;;;;;7.47;5.57;;;22.70;69.30;;;;;;5034018;28;20061;-65
2021/07/14 04:31:01;;;;;;;7.00;5.50;;;22.70;69.20;;;;;;5034170;28;20034;-65
2021/07/14 04:33:26;;;;;;;7.45;5.40;;;22.70;69.20;;;;;;5033931;28;20095;-65
2021/07/14 04:35:52;;;;;;;7.20;5.70;;;22.70;69.20;;;;;;5033969;28;20048;-65
2021/07/14 04:38:17;;;;;;;7.28;5.93;;;22.70;69.20;;;;;;5032672;28;20061;-65
2021/07/14 04:40:44;;;;;;;7.47;6.28;;;22.70;69.10;;;;;;5033655;28;20017;-65
2021/07/14 04:43:10;;;;;;;7.38;5.57;;;22.70;69.20;;;;;;5033687;28;20038;-65
2021/07/14 04:45:36;;;;;;;7.22;5.55;;;22.70;69.20;;;;;;5034044;28;20029;-65
2021/07/14 04:48:02;;;;;;;7.75;6.35;;;22.70;69.10;;;;;;5033722;28;20116;-65
2021/07/14 04:50:28;;;;;;;9.55;6.05;;;22.70;69.20;;;;;;5034331;28;20052;-65
2021/07/14 04:52:54;;;;;;;7.03;5.43;;;22.70;69.20;;;;;;5033756;28;20079;-65
2021/07/14 04:55:20;;;;;;;8.38;6.20;;;22.70;69.20;;;;;;5033769;28;20021;-65
2021/07/14 04:57:45;;;;;;;7.63;5.43;;;22.70;69.20;;;;;;5033509;28;20385;-65
2021/07/14 05:00:13;;;;;;;7.97;6.47;;;22.70;69.20;;;;;;5033565;28;20044;-65
2021/07/14 05:02:38;;;;;;;7.45;5.95;;;22.70;69.10;;;;;;5033258;28;20030;-65
2021/07/14 05:05:05;;;;;;;8.55;6.05;;;22.70;69.10;;;;;;5032213;28;20036;-65
2021/07/14 05:07:30;;;;;;;7.45;5.55;;;22.70;69.10;;;;;;5033555;28;20071;-65
2021/07/14 05:09:57;;;;;;;7.47;5.47;;;22.70;69.20;;;;;;5033427;28;20029;-65
2021/07/14 05:12:23;;;;;;;8.02;6.18;;;22.70;69.10;;;;;;5032929;28;20025;-65
2021/07/14 05:14:48;;;;;;;7.15;5.45;;;22.60;69.70;;;;;;5032536;28;20382;-65
2021/07/14 05:17:14;;;;;;;8.15;6.20;;;22.60;69.70;;;;;;5033242;28;20028;-65
2021/07/14 05:19:39;;;;;;;7.18;5.60;;;22.60;69.80;;;;;;5036972;28;20025;-64
2021/07/14 05:22:05;;;;;;;7.70;6.30;;;22.60;69.60;;;;;;5033668;28;20501;-65
2021/07/14 05:24:30;;;;;;;8.00;5.78;;;22.70;69.50;;;;;;5032889;28;20036;-64
2021/07/14 05:26:56;;;;;;;8.25;6.50;;;22.70;69.50;;;;;;5033245;28;20025;-64
2021/07/14 05:29:21;;;;;;;9.13;6.20;;;22.70;69.40;;;;;;5019678;28;20466;-64
2021/07/14 05:31:47;;;;;;;8.65;6.10;;;22.70;69.40;;;;;;5028429;28;20041;-64
2021/07/14 05:34:12;;;;;;;8.23;6.00;;;22.70;69.30;;;;;;5013212;28;20045;-64
2021/07/14 05:36:38;;;;;;;7.75;6.07;;;22.70;69.60;;;;;;5013622;28;20030;-64
2021/07/14 05:39:04;;;;;;;10.55;6.55;;;22.70;69.60;;;;;;5030687;28;20026;-64
2021/07/14 05:41:30;;;;;;;8.38;6.38;;;22.70;69.50;;;;;;5031511;28;20084;-64
2021/07/14 05:43:55;;;;;;;7.88;5.80;;;22.70;69.40;;;;;;5031750;28;20037;-64
2021/07/14 05:46:21;;;;;;;10.05;5.80;;;22.70;69.30;;;;;;5031905;28;20079;-64
2021/07/14 05:48:48;;;;;;;7.57;5.75;;;22.70;69.20;;;;;;5015962;28;20473;-65
2021/07/14 05:51:14;;;;;;;7.82;6.13;;;22.70;69.20;;;;;;5012729;28;20034;-64
2021/07/14 05:53:39;;;;;;;8.52;5.97;;;22.70;69.20;;;;;;5016209;28;20080;-64
2021/07/14 05:56:05;;;;;;;7.45;5.60;;;22.70;69.20;;;;;;5016138;28;20105;-64
2021/07/14 05:58:30;;;;;;;7.70;5.70;;;22.70;69.20;;;;;;5016530;28;20033;-64
2021/07/14 06:00:56;;;;;;;9.95;6.35;;;22.80;69.20;;;;;;5034576;28;20101;-65
2021/07/14 06:03:21;;;;;;;10.40;6.03;;;22.80;69.10;;;;;;5035639;28;20065;-64
2021/07/14 06:05:48;;;;;;;8.63;6.32;;;22.70;69.10;;;;;;5035758;28;20469;-65
2021/07/14 06:08:13;;;;;;;9.10;5.68;;;22.80;69.20;;;;;;5035988;28;20392;-64
2021/07/14 06:10:39;;;;;;;9.00;5.70;;;22.70;69.10;;;;;;5035926;28;20014;-65
2021/07/14 06:13:04;;;;;;;7.72;5.65;;;22.70;69.10;;;;;;5035670;28;20032;-65
2021/07/14 06:15:30;;;;;;;8.35;6.07;;;22.70;69.10;;;;;;5035646;28;20523;-65
2021/07/14 06:17:56;;;;;;;8.88;5.88;;;22.80;69.10;;;;;;5036021;28;20037;-65
2021/07/14 06:20:23;;;;;;;7.38;5.78;;;22.80;69.10;;;;;;5035582;28;20097;-63
2021/07/14 06:22:49;;;;;;;8.10;6.05;;;22.80;69.20;;;;;;5035467;28;20033;-64
2021/07/14 06:25:15;;;;;;;9.05;6.53;;;22.70;69.70;;;;;;5019836;28;20046;-65
2021/07/14 06:27:44;;;;;;;9.05;5.30;;;22.80;69.70;;;;;;5015711;28;20022;-62
2021/07/14 06:30:12;;;;;;;7.38;5.45;;;22.80;69.50;;;;;;5015812;28;20057;-63
2021/07/14 06:32:39;;;;;;;8.02;5.68;;;22.80;69.50;;;;;;5015634;28;20049;-63
2021/07/14 06:35:10;;;;;;;9.63;5.68;;;22.80;69.50;;;;;;5015407;28;20478;-63
2021/07/14 06:37:37;;;;;;;7.70;5.72;;;22.80;69.50;;;;;;5015088;28;20026;-62
2021/07/14 06:40:05;;;;;;;8.15;5.95;;;22.80;69.50;;;;;;5015576;28;20025;-62
2021/07/14 06:42:31;;;;;;;9.70;5.93;;;22.80;69.40;;;;;;5026254;28;20045;-63
2021/07/14 06:44:56;;;;;;;8.48;5.82;;;22.80;69.40;;;;;;5033777;28;20515;-63
2021/07/14 06:47:22;;;;;;;9.00;6.07;;;22.80;69.30;;;;;;5034454;28;20048;-63
2021/07/14 06:49:47;;;;;;;8.57;6.10;;;22.80;69.30;;;;;;5034526;28;20420;-64
2021/07/14 06:52:13;;;;;;;7.25;5.82;;;22.80;69.50;;;;;;5032640;28;20584;-63
2021/07/14 06:54:39;;;;;;;8.50;5.88;;;22.80;69.70;;;;;;5019079;28;20524;-63
2021/07/14 06:57:06;;;;;;;8.82;5.47;;;22.80;69.70;;;;;;5034975;28;20389;-63
2021/07/14 06:59:32;;;;;;;10.13;6.30;;;22.80;70.00;;;;;;5036551;28;20037;-63
2021/07/14 07:02:01;;;;;;;7.82;5.15;;;22.90;70.00;;;;;;5033987;28;20037;-63
2021/07/14 07:04:27;;;;;;;8.75;5.72;;;22.90;70.10;;;;;;5032288;28;20041;-64
2021/07/14 07:06:53;;;;;;;8.65;5.53;;;22.90;70.00;;;;;;5033362;28;20030;-63
2021/07/14 07:09:18;;;;;;;9.90;6.35;;;22.90;70.00;;;;;;5033789;28;20371;-64
2021/07/14 07:11:44;;;;;;;8.90;6.32;;;22.90;69.80;;;;;;5024876;28;20037;-64
2021/07/14 07:14:09;;;;;;;9.07;5.80;;;22.90;70.00;;;;;;5033502;28;20087;-65
2021/07/14 07:16:35;;;;;;;9.60;5.50;;;23.00;70.00;;;;;;5032832;28;20052;-64
2021/07/14 07:19:00;;;;;;;9.45;6.10;;;23.00;70.10;;;;;;5032632;28;20109;-64
2021/07/14 07:21:26;;;;;;;9.55;6.05;;;23.00;70.10;;;;;;5031106;28;20120;-64
2021/07/14 07:23:52;;;;;;;7.50;5.53;;;23.00;70.20;;;;;;5033379;28;20033;-64
2021/07/14 07:26:18;;;;;;;15.23;5.68;;;23.00;70.30;;;;;;5030919;28;20029;-63
2021/07/14 07:28:43;;;;;;;7.88;5.57;;;23.00;70.40;;;;;;5032830;28;20450;-63
2021/07/14 07:31:10;;;;;;;7.38;5.50;;;23.00;70.50;;;;;;5032328;28;20330;-62
2021/07/14 07:33:37;;;;;;;7.60;5.43;;;23.00;70.50;;;;;;5032764;28;20049;-63
2021/07/14 07:36:04;;;;;;;8.85;6.15;;;23.00;70.60;;;;;;5038827;28;20021;-64
2021/07/14 07:38:30;;;;;;;10.30;5.72;;;23.00;70.60;;;;;;5051568;28;20077;-63
2021/07/14 07:40:57;;;;;;;8.23;6.00;;;23.10;70.70;;;;;;5031700;28;20490;-63
2021/07/14 07:43:24;;;;;;;9.60;5.32;;;23.10;70.80;;;;;;5013193;28;20107;-63
2021/07/14 07:45:49;;;;;;;15.02;6.43;;;23.10;70.80;;;;;;5020415;28;20028;-63
2021/07/14 07:48:15;;;;;;;8.73;6.10;;;23.10;70.90;;;;;;5017626;28;20030;-62
2021/07/14 07:50:40;;;;;;;8.13;6.10;;;23.10;70.90;;;;;;5031687;28;20029;-64
2021/07/14 07:53:06;;;;;;;10.30;5.63;;;23.10;71.00;;;;;;5032193;28;20020;-65
2021/07/14 07:55:31;;;;;;;9.18;6.32;;;23.10;72.00;;;;;;5031524;28;20049;-65
2021/07/14 07:57:57;;;;;;;9.77;6.13;;;23.10;71.80;;;;;;5029539;28;20120;-65
2021/07/14 08:00:23;;;;;;;8.00;5.60;;;23.10;71.70;;;;;;5032452;28;20036;-65
2021/07/14 08:02:49;;;;;;;11.48;6.10;;;23.10;71.40;;;;;;5032107;28;20033;-66
2021/07/14 08:05:15;;;;;;;8.13;5.97;;;23.10;71.40;;;;;;5031866;28;20029;-66
2021/07/14 08:07:41;;;;;;;8.55;5.75;;;23.10;72.10;;;;;;5031762;28;20029;-65
2021/07/14 08:10:07;;;;;;;9.40;6.00;;;23.20;71.90;;;;;;5033528;28;20025;-65
2021/07/14 08:12:33;;;;;;;8.68;6.03;;;23.10;71.90;;;;;;5033606;28;20027;-65
2021/07/14 08:14:59;;;;;;;9.27;5.45;;;23.10;71.50;;;;;;5032831;28;20120;-65
2021/07/14 08:17:24;;;;;;;8.27;5.57;;;23.10;71.50;;;;;;5034077;28;20097;-65
2021/07/14 08:19:51;;;;;;;8.35;5.75;;;23.10;71.30;;;;;;5033468;28;20120;-65
2021/07/14 08:22:17;;;;;;;8.27;5.68;;;23.10;71.20;;;;;;5034365;28;20103;-65
2021/07/14 08:24:43;;;;;;;8.85;5.40;;;23.10;71.20;;;;;;5033211;28;20060;-65
2021/07/14 08:27:08;;;;;;;7.90;5.30;;;23.20;71.40;;;;;;5032343;28;20018;-65
2021/07/14 08:29:34;;;;;;;13.23;5.72;;;23.10;71.10;;;;;;5033259;28;20473;-63
2021/07/14 08:32:00;;;;;;;9.45;5.60;;;23.10;71.60;;;;;;5033922;28;20021;-65
2021/07/14 08:34:25;;;;;;;9.93;5.57;;;23.10;72.00;;;;;;5033528;28;20041;-66
2021/07/14 08:36:51;;;;;;;8.32;5.88;;;23.20;71.70;;;;;;5033617;28;20033;-64
2021/07/14 08:39:16;;;;;;;8.18;6.22;;;23.10;71.50;;;;;;5017247;28;20022;-65
2021/07/14 08:41:44;;;;;;;9.38;5.70;;;23.20;71.60;;;;;;5012919;28;20030;-64
2021/07/14 08:44:13;;;;;;;8.95;5.55;;;23.10;71.50;;;;;;5012143;28;20117;-64
2021/07/14 08:46:39;;;;;;;8.30;5.88;;;23.10;71.50;;;;;;5012558;28;20026;-64
2021/07/14 08:49:06;;;;;;;8.65;5.60;;;23.10;71.30;;;;;;5012620;28;20100;-64
2021/07/14 08:51:36;;;;;;;10.15;6.25;;;23.10;71.60;;;;;;5012865;28;20036;-64
2021/07/14 08:54:03;;;;;;;8.77;6.05;;;23.10;72.20;;;;;;5012984;28;20072;-64
2021/07/14 08:56:29;;;;;;;8.07;5.63;;;23.10;71.60;;;;;;5013801;28;20026;-64
2021/07/14 08:58:56;;;;;;;7.85;6.00;;;23.10;71.60;;;;;;5012895;28;20497;-64
2021/07/14 09:01:21;;;;;;;10.05;6.10;;;23.10;71.40;;;;;;5012472;28;20030;-64
2021/07/14 09:03:48;;;;;;;8.00;5.70;;;23.10;71.30;;;;;;5025753;28;20049;-68
2021/07/14 09:06:13;;;;;;;10.40;5.90;;;23.10;71.10;;;;;;5031372;28;20148;-64
2021/07/14 09:08:39;;;;;;;8.60;5.15;;;23.10;71.10;;;;;;5031761;28;20107;-64
2021/07/14 09:11:06;;;;;;;8.82;5.90;;;23.10;71.10;;;;;;5031688;28;20377;-64
2021/07/14 09:13:42;;;;;;;7.65;5.50;;;23.10;71.10;;;;;;5032043;28;20037;-66
2021/07/14 09:16:08;;;;;;;9.48;6.13;;;23.10;71.10;;;;;;5032515;28;20093;-61
2021/07/14 09:18:33;;;;;;;11.10;5.82;;;23.10;71.00;;;;;;5037515;28;20114;-64
2021/07/14 09:21:02;;;;;;;8.82;5.70;;;23.10;71.10;;;;;;5034358;28;20021;-65
2021/07/14 09:23:31;;;;;;;11.23;6.32;;;23.10;71.10;;;;;;5038729;28;20033;-64
2021/07/14 09:25:58;;;;;;;9.73;6.38;;;23.10;71.10;;;;;;5047431;28;20611;-64
2021/07/14 09:28:29;;;;;;;10.57;5.90;;;23.10;71.10;;;;;;5045615;28;20085;-64
2021/07/14 09:30:58;;;;;;;9.52;5.50;;;23.20;71.10;;;;;;5053805;28;20017;-65
2021/07/14 09:33:24;;;;;;;8.15;5.38;;;23.20;71.10;;;;;;5034287;28;20068;-65
2021/07/14 09:35:51;;;;;;;9.38;5.80;;;23.10;71.10;;;;;;5032467;28;20025;-65
2021/07/14 09:38:20;;;;;;;8.45;5.50;;;23.10;71.00;;;;;;5038651;28;20033;-64
2021/07/14 09:40:54;;;;;;;10.23;5.63;;;23.10;71.00;;;;;;5041355;28;20045;-64
2021/07/14 09:43:22;;;;;;;10.43;5.60;;;23.10;71.20;;;;;;5031687;28;20045;-64
2021/07/14 09:45:51;;;;;;;8.95;5.75;;;23.20;71.00;;;;;;5031652;28;20127;-64
2021/07/14 09:48:27;;;;;;;9.23;6.07;;;23.20;71.10;;;;;;5032039;28;20447;-64
2021/07/14 09:50:57;;;;;;;8.38;5.70;;;23.20;71.10;;;;;;5031193;28;20100;-64
2021/07/14 09:53:27;;;;;;;9.93;6.47;;;23.10;71.00;;;;;;5026551;28;20029;-64
2021/07/14 09:55:56;;;;;;;10.27;5.50;;;23.20;71.40;;;;;;5030757;28;20083;-64
2021/07/14 09:58:27;;;;;;;9.52;5.50;;;23.20;71.60;;;;;;5038450;28;20036;-65
2021/07/14 10:01:04;;;;;;;8.55;6.13;;;23.20;71.60;;;;;;5041236;28;20515;-65
2021/07/14 10:03:38;;;;;;;8.32;5.55;;;23.20;71.20;;;;;;5031082;28;20048;-63
2021/07/14 10:06:04;;;;;;;9.98;6.22;;;23.10;71.50;;;;;;5030921;28;20024;-64
2021/07/14 10:08:31;;;;;;;8.18;5.38;;;23.20;71.30;;;;;;5031268;28;20428;-64
2021/07/14 10:11:16;;;;;;;9.23;6.13;;;23.20;71.30;;;;;;5031225;28;20492;-64
2021/07/14 10:13:53;;;;;;;9.25;5.97;;;23.20;71.00;;;;;;5030052;28;20424;-64
2021/07/14 10:16:20;;;;;;;11.10;5.95;;;23.20;71.00;;;;;;5029953;28;20521;-64
2021/07/14 10:18:59;;;;;;;7.72;5.57;;;23.20;71.00;;;;;;5030770;28;20047;-64
2021/07/14 10:21:26;;;;;;;7.85;5.93;;;23.20;71.00;;;;;;5029244;28;20071;-63
2021/07/14 10:23:53;;;;;;;7.70;5.93;;;23.20;71.30;;;;;;5040136;28;20040;-63
2021/07/14 10:26:19;;;;;;;9.80;6.40;;;23.20;71.10;;;;;;5040469;28;20031;-63
2021/07/14 10:28:45;;;;;;;9.00;5.97;;;23.20;71.20;;;;;;5030983;28;20044;-63
2021/07/14 10:31:12;;;;;;;7.22;5.45;;;23.20;71.20;;;;;;5032241;28;20029;-62
2021/07/14 10:33:38;;;;;;;12.55;5.57;;;23.30;71.10;;;;;;5023650;28;20072;-63
2021/07/14 10:36:07;;;;;;;8.35;5.72;;;23.20;71.20;;;;;;5040436;28;20048;-63
2021/07/14 10:38:33;;;;;;;7.90;5.95;;;23.30;71.10;;;;;;5035825;28;20060;-65
2021/07/14 10:40:59;;;;;;;9.88;5.97;;;23.30;71.20;;;;;;5035217;28;20030;-63
2021/07/14 10:43:27;;;;;;;8.80;5.47;;;23.20;71.10;;;;;;5034790;28;20057;-64
2021/07/14 10:46:00;;;;;;;8.30;5.50;;;23.20;71.10;;;;;;5034741;28;20075;-64
2021/07/14 10:48:25;;;;;;;9.00;5.97;;;23.20;71.10;;;;;;5024466;28;20068;-63
2021/07/14 10:50:53;;;;;;;9.30;5.93;;;23.20;71.10;;;;;;5034782;28;20029;-63
2021/07/14 10:53:19;;;;;;;9.07;5.70;;;23.20;71.00;;;;;;5034316;28;20030;-63
2021/07/14 10:55:46;;;;;;;8.15;5.68;;;23.20;71.10;;;;;;5033429;28;20029;-64
2021/07/14 10:58:17;;;;;;;9.50;5.55;;;23.20;70.90;;;;;;5034306;28;20120;-63
2021/07/14 11:00:43;;;;;;;11.25;6.28;;;23.20;71.40;;;;;;5035212;28;20538;-63
2021/07/14 11:03:40;;;;;;;9.55;5.95;;;23.30;71.20;;;;;;5034775;28;20033;-63
2021/07/14 11:06:08;;;;;;;8.32;5.70;;;23.20;71.00;;;;;;5035241;28;20061;-63
2021/07/14 11:08:49;;;;;;;11.18;6.07;;;23.20;70.90;;;;;;5034547;28;20025;-63
2021/07/14 11:11:17;;;;;;;8.50;6.00;;;23.20;70.90;;;;;;5034839;28;20030;-63
2021/07/14 11:13:45;;;;;;;8.30;6.07;;;23.20;71.00;;;;;;5034460;28;20017;-64
2021/07/14 11:16:30;;;;;;;10.38;6.32;;;23.20;71.00;;;;;;5042659;28;20091;-74
2021/07/14 11:19:05;;;;;;;9.88;5.80;;;23.20;70.90;;;;;;5043016;28;20017;-64
2021/07/14 11:21:57;;;;;;;9.20;5.93;;;23.20;70.90;;;;;;5044015;28;20040;-69
2021/07/14 11:24:42;;;;;;;9.48;6.00;;;23.20;70.90;;;;;;5046011;28;20046;-64
2021/07/14 11:27:23;;;;;;;8.52;5.78;;;23.20;71.00;;;;;;5044271;28;20084;-63
2021/07/14 11:29:50;;;;;;;9.82;6.20;;;23.20;70.90;;;;;;5038913;28;20053;-64
2021/07/14 11:32:34;;;;;;;8.40;5.95;;;23.20;71.40;;;;;;5039505;28;20369;-64
2021/07/14 11:35:13;;;;;;;9.43;6.00;;;23.20;71.30;;;;;;5039723;28;20041;-63
2021/07/14 11:37:40;;;;;;;8.88;5.75;;;23.20;71.20;;;;;;5033800;28;20083;-63
2021/07/14 11:40:21;;;;;;;9.20;6.32;;;23.20;71.10;;;;;;5031640;28;20033;-63
2021/07/14 11:43:00;;;;;;;9.10;5.53;;;23.20;70.90;;;;;;5034217;28;20040;-64
2021/07/14 11:45:25;;;;;;;9.73;6.25;;;23.20;70.90;;;;;;5033943;28;20029;-63
2021/07/14 11:48:11;;;;;;;9.73;6.70;;;23.30;71.00;;;;;;5034737;28;20035;-63
2021/07/14 11:50:45;;;;;;;9.50;6.38;;;23.30;70.80;;;;;;5032478;28;20022;-64
2021/07/14 11:53:30;;;;;;;9.10;5.90;;;23.30;71.00;;;;;;5033614;28;20299;-64
2021/07/14 11:56:02;;;;;;;8.48;5.78;;;23.30;70.90;;;;;;5033948;28;20043;-63
2021/07/14 11:58:42;;;;;;;10.65;5.72;;;23.30;70.90;;;;;;5034267;28;20092;-63
2021/07/14 12:01:17;;;;;;;11.07;5.97;;;23.30;70.90;;;;;;5032893;28;20029;-63
2021/07/14 12:04:02;;;;;;;8.88;5.88;;;23.30;71.00;;;;;;5033155;28;20103;-63
2021/07/14 12:06:52;;;;;;;9.25;6.15;;;23.30;71.00;;;;;;5033425;28;20026;-63
2021/07/14 12:09:17;;;;;;;8.07;5.68;;;23.30;71.10;;;;;;5027872;28;20036;-63
2021/07/14 12:11:43;;;;;;;11.45;6.45;;;23.30;71.00;;;;;;5045179;28;20116;-63
2021/07/14 12:14:20;;;;;;;8.13;5.60;;;23.30;70.90;;;;;;5052023;28;20025;-63
2021/07/14 12:16:47;;;;;;;9.40;5.93;;;23.30;70.90;;;;;;5033820;28;20484;-63
2021/07/14 12:19:27;;;;;;;8.65;6.00;;;23.30;70.90;;;;;;5035065;28;20037;-64
2021/07/14 12:21:54;;;;;;;10.60;5.95;;;23.40;71.00;;;;;;5047903;28;20377;-63
2021/07/14 12:24:44;;;;;;;11.40;6.03;;;23.40;71.00;;;;;;5033994;28;20104;-62
2021/07/14 12:27:13;;;;;;;8.80;5.93;;;23.30;70.90;;;;;;5034716;28;20358;-62
2021/07/14 12:29:40;;;;;;;10.02;6.30;;;23.30;70.90;;;;;;5038544;28;20393;-63
2021/07/14 12:32:06;;;;;;;9.10;5.78;;;23.30;70.90;;;;;;5032158;28;20029;-63
2021/07/14 12:34:34;;;;;;;9.55;6.47;;;23.40;70.80;;;;;;5039037;28;20125;-63
2021/07/14 12:37:02;;;;;;;8.82;6.40;;;23.30;70.90;;;;;;5035832;28;20039;-63
2021/07/14 12:39:30;;;;;;;9.85;6.28;;;23.30;70.80;;;;;;5039421;28;20434;-63
2021/07/14 12:41:58;;;;;;;9.70;6.55;;;23.30;70.80;;;;;;5033729;28;20079;-63
2021/07/14 12:44:24;;;;;;;9.07;6.45;;;23.30;70.80;;;;;;5045084;28;20060;-63
2021/07/14 12:46:51;;;;;;;9.13;5.85;;;23.30;70.70;;;;;;5036985;28;20021;-63
2021/07/14 12:49:18;;;;;;;9.30;6.13;;;23.30;70.70;;;;;;5033332;28;20059;-63
2021/07/14 12:52:10;;;;;;;8.05;6.00;;;23.30;70.80;;;;;;5033020;28;20447;-63
2021/07/14 12:54:38;;;;;;;10.38;5.90;;;23.30;70.80;;;;;;5032154;28;20032;-62
2021/07/14 12:57:07;;;;;;;9.95;6.00;;;23.30;70.70;;;;;;5032860;28;20104;-63
2021/07/14 12:59:32;;;;;;;8.73;5.88;;;23.30;70.80;;;;;;5033106;28;20121;-63
2021/07/14 13:01:58;;;;;;;11.13;6.68;;;23.30;70.70;;;;;;5031993;28;20049;-63